Time;durP1;ratioP1;P1;durP2;ratioP2;P2;SDS_P1;SDS_P2;PMS_P1;PMS_P2;Temp;Humidity;BMP_temperature;BMP_pressure;BME280_temperature;BME280_humidity;BME280_pressure;Samples;Min_cycle;Max_cycle;Signal;HPM_P1;HPM_P2
2023/03/05 00:01:36;;;;;;;38.40;21.10;;;;;;;8.33;49.65;99825.30;108065;1288;22227;-60
2023/03/05 00:04:03;;;;;;;36.90;21.10;;;;;;;8.26;49.68;99821.71;108048;1276;21976;-63
2023/03/05 00:06:30;;;;;;;34.90;20.70;;;;;;;8.21;49.28;99818.79;108081;1277;21988;-60
2023/03/05 00:08:58;;;;;;;39.00;21.20;;;;;;;8.14;49.38;99819.22;108092;1277;21982;-60
2023/03/05 00:11:41;;;;;;;39.60;23.20;;;;;;;8.03;49.40;99824.41;107819;1289;21990;-60
2023/03/05 00:14:08;;;;;;;38.50;22.00;;;;;;;7.96;49.35;99828.34;107881;1288;21985;-64
2023/03/05 00:16:38;;;;;;;34.80;20.50;;;;;;;7.95;49.08;99830.09;107901;1289;23605;-60
2023/03/05 00:19:05;;;;;;;36.10;19.70;;;;;;;7.97;48.93;99830.75;107191;1288;1003174;-61
2023/03/05 00:21:39;;;;;;;35.00;19.00;;;;;;;7.95;48.72;99828.52;108060;1283;21996;-63
2023/03/05 00:24:13;;;;;;;36.10;21.00;;;;;;;7.96;48.45;99825.70;108061;1288;21981;-64
2023/03/05 00:26:40;;;;;;;34.10;19.20;;;;;;;7.96;48.29;99825.17;108130;1288;23699;-60
2023/03/05 00:29:06;;;;;;;33.40;20.50;;;;;;;7.94;48.30;99825.22;108044;1288;22463;-61
2023/03/05 00:31:33;;;;;;;35.30;20.70;;;;;;;7.90;48.14;99825.95;108057;1288;21985;-63
2023/03/05 00:34:01;;;;;;;37.70;20.00;;;;;;;7.84;47.85;99823.73;108197;1288;21975;-61
2023/03/05 00:36:26;;;;;;;38.10;20.00;;;;;;;7.77;47.91;99824.67;108039;1288;21983;-60
2023/03/05 00:38:52;;;;;;;37.90;19.90;;;;;;;7.72;47.73;99826.82;108100;1289;22005;-63
2023/03/05 00:41:18;;;;;;;34.50;19.90;;;;;;;7.69;47.67;99827.20;108056;1288;21988;-60
2023/03/05 00:44:04;;;;;;;35.10;20.80;;;;;;;7.66;47.76;99828.27;108099;1289;21998;-63
2023/03/05 00:46:31;;;;;;;32.60;19.70;;;;;;;7.63;47.66;99824.11;108102;1289;22157;-61
2023/03/05 00:49:00;;;;;;;42.00;21.10;;;;;;;7.59;47.59;99824.13;108083;1289;21995;-61
2023/03/05 00:51:53;;;;;;;36.70;21.00;;;;;;;7.58;47.48;99828.34;107360;1289;1002352;-60
2023/03/05 00:57:21;;;;;;;36.00;20.00;;;;;;;7.49;47.28;99831.73;107905;1288;21983;-62
2023/03/05 00:59:47;;;;;;;36.80;20.30;;;;;;;7.41;47.20;99835.12;108110;1289;21984;-62
2023/03/05 01:02:48;;;;;;;32.90;19.20;;;;;;;7.33;47.24;99836.75;108062;1288;21995;-62
2023/03/05 01:05:31;;;;;;;38.20;20.00;;;;;;;7.24;47.30;99840.14;107353;1288;1003047;-60
2023/03/05 01:07:58;;;;;;;33.90;17.80;;;;;;;7.15;47.18;99842.30;107917;1289;22748;-63
2023/03/05 01:10:28;;;;;;;29.90;18.90;;;;;;;7.06;47.14;99840.61;108065;1288;21985;-62
2023/03/05 01:12:54;;;;;;;36.40;19.60;;;;;;;6.97;47.03;99843.64;108074;1288;21991;-61
2023/03/05 01:15:20;;;;;;;35.80;19.90;;;;;;;6.91;47.05;99844.35;108088;1289;22466;-63
2023/03/05 01:17:46;;;;;;;39.10;20.70;;;;;;;6.88;46.99;99844.37;108015;1288;21991;-63
2023/03/05 01:20:14;;;;;;;36.00;20.00;;;;;;;6.87;46.99;99841.59;107940;1289;22013;-63
2023/03/05 01:22:43;;;;;;;34.20;18.90;;;;;;;6.89;47.27;99841.75;108035;1288;21986;-61
2023/03/05 01:25:11;;;;;;;34.80;19.40;;;;;;;6.89;47.12;99843.67;108173;1289;21980;-62
2023/03/05 01:27:38;;;;;;;35.80;19.50;;;;;;;6.88;46.78;99845.08;108135;1289;21991;-60
2023/03/05 01:30:06;;;;;;;35.50;19.00;;;;;;;6.88;46.86;99849.95;108095;1289;21984;-61
2023/03/05 01:32:34;;;;;;;34.50;19.20;;;;;;;6.86;46.87;99847.52;108177;1289;21992;-60
2023/03/05 01:35:00;;;;;;;36.00;20.20;;;;;;;6.80;46.58;99848.44;108078;1288;21999;-60
2023/03/05 01:37:27;;;;;;;37.00;20.50;;;;;;;6.70;46.51;99852.14;108069;1278;21991;-61
2023/03/05 01:39:53;;;;;;;36.30;19.40;;;;;;;6.65;46.79;99857.92;108106;1288;21992;-61
2023/03/05 01:42:20;;;;;;;39.50;21.50;;;;;;;6.56;46.55;99867.02;108112;1289;21983;-61
2023/03/05 01:45:17;;;;;;;37.40;20.40;;;;;;;6.45;46.60;99866.38;108055;1288;21990;-62
2023/03/05 01:47:43;;;;;;;38.10;19.40;;;;;;;6.37;47.28;99872.16;107735;1288;21987;-61
2023/03/05 01:50:16;;;;;;;32.00;18.40;;;;;;;6.40;47.37;99879.80;108209;1289;22054;-63
2023/03/05 01:52:45;;;;;;;36.60;20.70;;;;;;;6.48;47.65;99884.13;108044;1289;21986;-61
2023/03/05 01:55:14;;;;;;;42.60;22.10;;;;;;;6.53;47.86;99881.67;108043;1289;22024;-63
2023/03/05 01:57:45;;;;;;;41.40;21.70;;;;;;;6.49;48.52;99884.84;108092;1288;22001;-63
2023/03/05 02:00:13;;;;;;;37.20;21.30;;;;;;;6.51;48.24;99888.48;107270;1288;1002259;-63
2023/03/05 02:02:47;;;;;;;37.80;20.90;;;;;;;6.47;48.43;99893.39;108031;1288;22000;-62
2023/03/05 02:05:28;;;;;;;37.10;20.80;;;;;;;6.53;48.00;99894.59;108133;1289;21979;-62
2023/03/05 02:07:55;;;;;;;40.60;21.70;;;;;;;6.56;47.75;99895.10;108109;1289;21953;-63
2023/03/05 02:10:24;;;;;;;42.60;22.30;;;;;;;6.58;47.59;99902.94;108114;1289;22025;-62
2023/03/05 02:12:52;;;;;;;41.90;20.60;;;;;;;6.55;47.50;99906.08;108085;1288;21983;-62
2023/03/05 02:15:19;;;;;;;39.90;20.50;;;;;;;6.54;47.47;99907.48;107368;1288;1002324;-61
2023/03/05 02:17:45;;;;;;;39.70;20.60;;;;;;;6.55;47.19;99909.73;108110;1288;21977;-63
2023/03/05 02:20:23;;;;;;;38.20;21.40;;;;;;;6.53;47.45;99910.79;108077;1288;21980;-62
2023/03/05 02:22:49;;;;;;;45.50;22.80;;;;;;;6.51;47.64;99910.98;108132;1289;21991;-61
2023/03/05 02:25:18;;;;;;;38.00;20.90;;;;;;;6.48;47.43;99908.38;108089;1288;21986;-63
2023/03/05 02:28:07;;;;;;;41.30;20.70;;;;;;;6.48;47.43;99910.63;108070;1288;21986;-61
2023/03/05 02:30:34;;;;;;;39.40;20.00;;;;;;;6.42;47.60;99908.39;108102;1289;21984;-60
2023/03/05 02:33:00;;;;;;;41.50;21.00;;;;;;;6.37;47.36;99909.62;108242;1289;21998;-60
2023/03/05 02:35:26;;;;;;;37.80;19.60;;;;;;;6.34;47.48;99908.77;107335;1288;1002312;-62
2023/03/05 02:37:53;;;;;;;36.10;19.20;;;;;;;6.34;47.32;99909.46;108052;1277;21986;-62
2023/03/05 02:40:19;;;;;;;41.10;21.20;;;;;;;6.35;47.03;99911.89;107350;1283;1002398;-60
2023/03/05 02:42:45;;;;;;;37.90;19.90;;;;;;;6.36;46.97;99919.56;107346;1288;1002241;-61
2023/03/05 02:45:15;;;;;;;41.30;21.30;;;;;;;6.36;47.08;99926.02;108122;1288;21995;-60
2023/03/05 02:47:41;;;;;;;42.60;20.90;;;;;;;6.36;46.90;99929.84;108098;1289;21993;-62
2023/03/05 02:50:08;;;;;;;42.00;20.60;;;;;;;6.32;46.70;99931.95;108061;1284;21993;-60
2023/03/05 02:52:35;;;;;;;38.50;20.60;;;;;;;6.20;46.48;99934.91;107243;1288;1003101;-61
2023/03/05 02:55:00;;;;;;;37.20;19.40;;;;;;;6.03;46.46;99937.52;108032;1289;21988;-61
2023/03/05 02:57:26;;;;;;;42.20;22.90;;;;;;;5.93;46.64;99940.48;108078;1288;21997;-61
2023/03/05 02:59:52;;;;;;;42.30;23.20;;;;;;;5.85;46.53;99944.48;108061;1289;22046;-61
2023/03/05 03:02:17;;;;;;;43.90;23.20;;;;;;;5.71;46.61;99946.93;108072;1288;21980;-62
2023/03/05 03:04:43;;;;;;;40.40;21.20;;;;;;;5.63;46.88;99946.58;108009;1280;22026;-61
2023/03/05 03:07:10;;;;;;;41.20;21.20;;;;;;;5.57;47.10;99949.35;108026;1289;22025;-61
2023/03/05 03:09:37;;;;;;;43.40;22.70;;;;;;;5.50;47.03;99950.39;107268;1284;1002256;-62
2023/03/05 03:12:04;;;;;;;41.40;20.90;;;;;;;5.46;46.94;99951.42;108061;1289;22494;-61
2023/03/05 03:14:37;;;;;;;41.80;20.90;;;;;;;5.45;47.07;99951.95;108051;1289;21994;-62
2023/03/05 03:17:11;;;;;;;46.40;22.30;;;;;;;5.40;47.31;99947.92;107977;1288;21984;-62
2023/03/05 03:19:38;;;;;;;46.80;23.10;;;;;;;5.33;47.77;99951.90;108042;1287;22176;-62
2023/03/05 03:22:03;;;;;;;45.50;22.60;;;;;;;5.33;47.80;99951.56;108089;1286;21987;-62
2023/03/05 03:24:32;;;;;;;46.60;22.50;;;;;;;5.39;47.69;99952.11;107304;1289;1003522;-63
2023/03/05 03:26:58;;;;;;;41.90;20.80;;;;;;;5.45;47.65;99955.08;108063;1288;22021;-61
2023/03/05 03:29:23;;;;;;;47.70;20.70;;;;;;;5.49;47.14;99954.20;108073;1288;22564;-60
2023/03/05 03:31:50;;;;;;;42.30;23.10;;;;;;;5.53;47.00;99956.98;107955;1286;21983;-60
2023/03/05 03:34:17;;;;;;;42.10;20.60;;;;;;;5.54;47.12;99958.55;108018;1289;22009;-61
2023/03/05 03:36:43;;;;;;;39.80;20.80;;;;;;;5.55;47.13;99957.52;107305;1287;1002451;-62
2023/03/05 03:39:09;;;;;;;45.60;22.40;;;;;;;5.58;47.01;99964.48;107270;1285;1002569;-62
2023/03/05 03:41:41;;;;;;;43.80;21.80;;;;;;;5.57;47.05;99964.14;108006;1289;21988;-60
2023/03/05 03:44:09;;;;;;;43.60;21.10;;;;;;;5.54;47.02;99962.91;108036;1288;22035;-63
2023/03/05 03:46:37;;;;;;;44.10;20.80;;;;;;;5.56;46.93;99965.70;108005;1288;22044;-61
2023/03/05 03:49:03;;;;;;;40.20;20.10;;;;;;;5.58;46.74;99973.89;107948;1289;22070;-62
2023/03/05 03:51:29;;;;;;;40.50;20.80;;;;;;;5.59;46.78;99974.58;108040;1289;21999;-62
2023/03/05 03:53:55;;;;;;;45.20;22.40;;;;;;;5.58;46.68;99972.67;107985;1289;22025;-62
2023/03/05 03:56:22;;;;;;;45.80;22.20;;;;;;;5.56;46.73;99970.40;108014;1288;23787;-63
2023/03/05 03:58:51;;;;;;;42.50;21.50;;;;;;;5.53;46.60;99974.40;108005;1288;22007;-62
2023/03/05 04:01:18;;;;;;;40.30;20.70;;;;;;;5.50;46.73;99984.15;108065;1288;21989;-62
2023/03/05 04:03:45;;;;;;;41.70;21.00;;;;;;;5.48;46.87;99986.58;108023;1289;21998;-60
2023/03/05 04:06:11;;;;;;;43.90;19.90;;;;;;;5.46;46.85;99983.61;108065;1286;22020;-62
2023/03/05 04:08:38;;;;;;;44.60;20.80;;;;;;;5.46;46.71;99986.23;108064;1287;21990;-62
2023/03/05 04:11:05;;;;;;;39.80;20.20;;;;;;;5.44;46.66;99985.18;108013;1289;21989;-61
2023/03/05 04:13:32;;;;;;;40.10;19.50;;;;;;;5.39;46.72;99985.85;108071;1289;22008;-63
2023/03/05 04:15:58;;;;;;;45.30;21.70;;;;;;;5.32;46.65;99993.14;108042;1289;22027;-60
2023/03/05 04:18:25;;;;;;;37.00;19.00;;;;;;;5.27;47.05;99995.39;108096;1289;21990;-61
2023/03/05 04:20:51;;;;;;;39.60;20.50;;;;;;;5.23;46.87;99996.42;108076;1287;21984;-63
2023/03/05 04:23:18;;;;;;;44.10;21.10;;;;;;;5.22;46.89;99998.16;108066;1289;22004;-60
2023/03/05 04:25:44;;;;;;;43.60;22.10;;;;;;;5.23;47.12;99995.90;108123;1289;21983;-60
2023/03/05 04:28:14;;;;;;;41.00;20.70;;;;;;;5.24;47.12;99994.52;108030;1289;21987;-60
2023/03/05 04:30:51;;;;;;;40.10;19.60;;;;;;;5.24;46.88;99993.65;107990;1289;22029;-62
2023/03/05 04:33:17;;;;;;;38.60;20.40;;;;;;;5.27;46.89;99997.66;108060;1289;21986;-63
2023/03/05 04:35:43;;;;;;;41.40;20.20;;;;;;;5.29;47.02;100000.79;107931;1289;21974;-61
2023/03/05 04:38:09;;;;;;;36.90;18.30;;;;;;;5.28;46.97;100003.23;107991;1288;22470;-60
2023/03/05 04:40:36;;;;;;;49.80;20.70;;;;;;;5.28;46.95;100002.55;108025;1288;21983;-62
2023/03/05 04:43:02;;;;;;;47.90;21.00;;;;;;;5.34;47.23;100003.24;108057;1288;22089;-63
2023/03/05 04:45:28;;;;;;;67.70;28.30;;;;;;;5.39;47.06;100004.30;108068;1289;21984;-61
2023/03/05 04:47:54;;;;;;;41.20;20.90;;;;;;;5.41;47.29;100011.78;108047;1289;22090;-61
2023/03/05 04:50:24;;;;;;;41.80;20.70;;;;;;;5.45;47.12;100012.85;108054;1289;22090;-61
2023/03/05 04:52:50;;;;;;;41.70;21.80;;;;;;;5.43;47.38;100014.94;108026;1289;22057;-62
2023/03/05 04:55:16;;;;;;;48.70;23.40;;;;;;;5.42;47.36;100020.15;108039;1287;22085;-62
2023/03/05 04:57:42;;;;;;;48.00;22.30;;;;;;;5.45;47.29;100025.71;108043;1289;21991;-63
2023/03/05 05:00:13;;;;;;;39.80;20.10;;;;;;;5.47;47.74;100032.52;108095;1285;22022;-61
2023/03/05 05:02:40;;;;;;;39.70;20.30;;;;;;;5.50;47.90;100039.31;107907;1289;22043;-62
2023/03/05 05:05:08;;;;;;;48.50;24.00;;;;;;;5.54;47.98;100042.11;108085;1288;21979;-61
2023/03/05 05:07:34;;;;;;;47.00;22.50;;;;;;;5.59;47.95;100045.78;108118;1283;22024;-63
2023/03/05 05:10:03;;;;;;;47.60;23.00;;;;;;;5.63;48.03;100048.74;108089;1286;21989;-61
2023/03/05 05:12:29;;;;;;;43.40;21.50;;;;;;;5.68;47.83;100053.12;108061;1289;22064;-62
2023/03/05 05:14:59;;;;;;;43.50;21.20;;;;;;;5.73;47.97;100050.86;108008;1288;21981;-61
2023/03/05 05:17:28;;;;;;;41.80;20.80;;;;;;;5.77;48.09;100051.73;108008;1289;22244;-63
2023/03/05 05:19:59;;;;;;;38.10;20.20;;;;;;;5.80;47.91;100054.88;108012;1289;22029;-61
2023/03/05 05:22:26;;;;;;;37.60;20.10;;;;;;;5.80;47.93;100053.14;107251;1288;1002708;-61
2023/03/05 05:24:52;;;;;;;39.80;21.20;;;;;;;5.78;48.06;100059.05;107995;1282;21986;-62
2023/03/05 05:27:17;;;;;;;44.80;21.20;;;;;;;5.81;48.10;100066.54;107971;1288;22218;-63
2023/03/05 05:29:45;;;;;;;41.80;20.50;;;;;;;5.88;48.16;100072.66;108042;1277;22466;-63
2023/03/05 05:32:11;;;;;;;39.40;20.00;;;;;;;5.95;48.30;100076.69;108064;1287;22018;-62
2023/03/05 05:34:38;;;;;;;44.80;20.50;;;;;;;6.03;48.00;100082.98;108036;1289;21984;-61
2023/03/05 05:37:04;;;;;;;35.50;19.70;;;;;;;6.10;48.20;100084.75;107963;1289;22056;-63
2023/03/05 05:39:34;;;;;;;41.90;21.80;;;;;;;6.17;48.33;100084.94;107983;1289;22033;-61
2023/03/05 05:42:00;;;;;;;43.80;22.30;;;;;;;6.19;48.27;100089.96;108064;1289;22023;-62
2023/03/05 05:44:25;;;;;;;44.40;22.00;;;;;;;6.20;48.12;100089.80;108023;1288;22002;-62
2023/03/05 05:46:51;;;;;;;40.30;20.10;;;;;;;6.23;48.17;100093.11;107193;1289;1003240;-63
2023/03/05 05:49:17;;;;;;;40.10;20.20;;;;;;;6.31;48.24;100093.83;108140;1289;23131;-62
2023/03/05 05:51:42;;;;;;;38.70;20.00;;;;;;;6.40;48.37;100093.83;108007;1289;21993;-64
2023/03/05 05:54:11;;;;;;;36.80;19.40;;;;;;;6.48;48.83;100095.04;107999;1289;22452;-64
2023/03/05 05:56:37;;;;;;;38.80;20.50;;;;;;;6.55;49.45;100093.83;107972;1283;21986;-63
2023/03/05 05:59:03;;;;;;;37.70;19.70;;;;;;;6.57;50.49;100095.23;107989;1281;21998;-64
2023/03/05 06:01:30;;;;;;;42.10;21.80;;;;;;;6.72;49.91;100094.68;108000;1283;22032;-63
2023/03/05 06:03:56;;;;;;;38.60;21.10;;;;;;;6.87;50.24;100095.54;107270;1288;1002354;-63
2023/03/05 06:06:26;;;;;;;33.30;18.50;;;;;;;7.07;49.83;100094.10;108002;1288;21980;-63
2023/03/05 06:08:53;;;;;;;34.00;17.00;;;;;;;7.27;49.99;100097.17;107982;1289;21988;-64
2023/03/05 06:11:19;;;;;;;35.50;19.70;;;;;;;7.47;50.17;100098.16;107937;1289;22045;-64
2023/03/05 06:13:46;;;;;;;35.00;19.60;;;;;;;7.64;49.77;100099.30;107993;1281;21995;-64
2023/03/05 06:16:15;;;;;;;36.70;20.70;;;;;;;7.79;49.28;100098.37;108000;1289;23712;-64
2023/03/05 06:18:41;;;;;;;43.40;22.10;;;;;;;7.94;49.14;100099.32;107997;1277;23100;-64
2023/03/05 06:21:09;;;;;;;37.80;19.60;;;;;;;8.06;49.07;100101.17;108000;1289;21986;-64
2023/03/05 06:23:36;;;;;;;36.00;19.50;;;;;;;8.19;49.04;100105.11;108022;1289;21992;-64
2023/03/05 06:26:03;;;;;;;35.40;17.70;;;;;;;8.34;49.22;100105.52;108043;1289;21997;-63
2023/03/05 06:28:30;;;;;;;37.70;20.80;;;;;;;8.48;49.18;100104.02;107249;1289;1002720;-64
2023/03/05 06:31:03;;;;;;;35.30;18.60;;;;;;;8.60;49.05;100101.68;108033;1288;23052;-66
2023/03/05 06:33:29;;;;;;;33.40;19.00;;;;;;;8.72;49.11;100104.55;108026;1289;21986;-64
2023/03/05 06:35:55;;;;;;;36.00;20.00;;;;;;;8.89;49.23;100110.87;108089;1277;21993;-63
2023/03/05 06:38:22;;;;;;;35.90;19.60;;;;;;;9.01;48.90;100114.43;107248;1288;1002220;-63
2023/03/05 06:40:48;;;;;;;32.00;18.30;;;;;;;9.13;48.71;100118.51;107281;1289;1002374;-63
2023/03/05 06:43:19;;;;;;;33.10;19.00;;;;;;;9.27;48.68;100122.73;108001;1289;21989;-64
2023/03/05 06:45:45;;;;;;;31.20;18.20;;;;;;;9.39;48.62;100122.77;108002;1289;21993;-64
2023/03/05 06:48:11;;;;;;;34.80;18.70;;;;;;;9.55;48.97;100119.42;108011;1289;21984;-64
2023/03/05 06:50:38;;;;;;;30.50;17.90;;;;;;;9.71;48.56;100122.02;108021;1289;22039;-66
2023/03/05 06:53:05;;;;;;;35.00;18.40;;;;;;;9.84;48.36;100120.46;107976;1289;22201;-65
2023/03/05 06:55:38;;;;;;;34.10;18.50;;;;;;;9.96;48.31;100119.60;108026;1288;21989;-62
2023/03/05 06:58:05;;;;;;;30.00;16.20;;;;;;;10.07;47.94;100121.21;108067;1289;23067;-62
2023/03/05 07:00:31;;;;;;;31.80;16.30;;;;;;;10.24;48.36;100121.99;108110;1277;22044;-65
2023/03/05 07:02:57;;;;;;;27.40;14.40;;;;;;;10.50;48.16;100124.61;108067;1289;22009;-66
2023/03/05 07:05:23;;;;;;;24.60;14.10;;;;;;;10.77;47.88;100124.70;108082;1289;21993;-65
2023/03/05 07:07:48;;;;;;;24.40;13.80;;;;;;;10.94;45.96;100124.05;107985;1288;21986;-62
2023/03/05 07:10:15;;;;;;;20.10;12.00;;;;;;;11.06;46.11;100121.03;107978;1289;22923;-64
2023/03/05 07:12:42;;;;;;;20.60;12.80;;;;;;;11.18;46.19;100122.73;108022;1289;21988;-64
2023/03/05 07:15:09;;;;;;;20.70;12.70;;;;;;;11.35;45.69;100124.36;108017;1289;21980;-63
2023/03/05 07:17:34;;;;;;;21.20;12.00;;;;;;;11.52;45.81;100124.17;108071;1288;21985;-62
2023/03/05 07:20:00;;;;;;;18.00;10.70;;;;;;;11.76;46.35;100124.55;108029;1289;21984;-64
2023/03/05 07:22:27;;;;;;;19.90;11.20;;;;;;;12.01;44.74;100127.75;107997;1289;22064;-61
2023/03/05 07:24:53;;;;;;;19.70;10.70;;;;;;;12.14;44.19;100125.35;108013;1289;21992;-64
2023/03/05 07:27:19;;;;;;;19.00;10.90;;;;;;;12.30;44.49;100126.75;108035;1289;21969;-61
2023/03/05 07:29:45;;;;;;;21.70;11.90;;;;;;;12.35;43.18;100125.05;108025;1289;21973;-61
2023/03/05 07:32:10;;;;;;;21.80;12.40;;;;;;;12.37;42.83;100123.25;108029;1288;22003;-64
2023/03/05 07:34:37;;;;;;;17.60;10.80;;;;;;;12.49;43.58;100118.73;108055;1289;21977;-64
2023/03/05 07:37:02;;;;;;;17.70;10.40;;;;;;;12.57;42.65;100124.86;108033;1289;21989;-61
2023/03/05 07:39:28;;;;;;;18.00;10.80;;;;;;;12.66;42.72;100122.54;108055;1288;22000;-64
2023/03/05 07:41:56;;;;;;;16.80;10.00;;;;;;;12.75;41.67;100128.84;107984;1289;22106;-62
2023/03/05 07:44:22;;;;;;;18.80;10.40;;;;;;;12.83;42.03;100129.35;108036;1289;22112;-64
2023/03/05 07:46:47;;;;;;;17.30;9.80;;;;;;;12.87;41.94;100125.73;108020;1289;21984;-64
2023/03/05 07:49:14;;;;;;;17.60;10.60;;;;;;;12.91;42.26;100127.73;108050;1287;21985;-62
2023/03/05 07:51:41;;;;;;;16.60;10.20;;;;;;;12.99;41.98;100124.70;108021;1289;22046;-64
2023/03/05 07:54:09;;;;;;;15.70;9.00;;;;;;;13.03;41.57;100118.61;108088;1289;21988;-61
2023/03/05 07:56:35;;;;;;;16.80;9.30;;;;;;;13.17;41.80;100115.75;108070;1289;21996;-62
2023/03/05 07:59:05;;;;;;;15.50;9.20;;;;;;;13.41;41.82;100116.17;108104;1289;21990;-62
2023/03/05 08:01:31;;;;;;;;;;;;;;;13.46;40.62;100114.28;108080;1289;21977;-62
2023/03/05 08:03:57;;;;;;;15.70;9.00;;;;;;;13.36;39.65;100114.02;108062;1289;22074;-61
2023/03/05 08:06:24;;;;;;;16.00;9.40;;;;;;;13.26;39.79;100108.30;107985;1289;21987;-62
2023/03/05 08:08:50;;;;;;;17.60;9.20;;;;;;;13.27;40.26;100105.43;107994;1289;21987;-63
2023/03/05 08:11:16;;;;;;;17.60;9.30;;;;;;;13.27;39.96;100103.69;107367;1289;1003009;-64
2023/03/05 08:13:43;;;;;;;15.70;8.70;;;;;;;13.29;39.88;100100.80;108042;1289;22026;-65
2023/03/05 08:16:12;;;;;;;12.30;7.70;;;;;;;13.54;40.09;100101.38;108027;1289;22029;-64
2023/03/05 08:18:39;;;;;;;12.20;7.30;;;;;;;13.69;39.02;100097.42;108087;1288;23715;-65
2023/03/05 08:21:05;;;;;;;13.20;8.20;;;;;;;13.87;39.49;100091.77;107958;1288;23722;-64
2023/03/05 08:23:30;;;;;;;11.20;6.30;;;;;;;14.13;39.00;100089.02;108079;1288;21996;-64
2023/03/05 08:25:56;;;;;;;9.50;5.70;;;;;;;14.41;36.88;100087.24;108061;1289;21996;-64
2023/03/05 08:28:23;;;;;;;9.00;5.20;;;;;;;14.53;34.28;100085.79;108033;1288;21984;-65
2023/03/05 08:30:48;;;;;;;7.50;4.70;;;;;;;14.72;36.54;100082.52;107999;1289;21991;-64
2023/03/05 08:33:16;;;;;;;9.00;5.00;;;;;;;14.82;35.05;100080.78;108044;1289;22026;-62
2023/03/05 08:35:42;;;;;;;9.40;4.60;;;;;;;14.77;34.21;100076.37;108068;1289;22003;-62
2023/03/05 08:38:13;;;;;;;9.30;5.50;;;;;;;14.63;32.90;100073.28;108060;1289;22026;-62
2023/03/05 08:40:39;;;;;;;12.60;4.60;;;;;;;14.62;32.88;100077.72;108017;1288;21987;-62
2023/03/05 08:43:06;;;;;;;8.40;4.50;;;;;;;14.69;31.95;100075.23;108062;1288;22000;-64
2023/03/05 08:45:32;;;;;;;8.20;4.40;;;;;;;14.76;31.50;100073.59;108098;1289;22029;-65
2023/03/05 08:47:57;;;;;;;6.30;3.80;;;;;;;14.93;32.72;100072.80;108078;1289;21994;-64
2023/03/05 08:50:25;;;;;;;11.20;6.00;;;;;;;15.02;32.77;100071.79;107988;1287;21990;-62
2023/03/05 08:52:50;;;;;;;8.50;4.20;;;;;;;15.08;30.28;100071.04;108041;1289;21980;-62
2023/03/05 08:55:16;;;;;;;7.90;4.30;;;;;;;15.13;29.70;100071.59;108048;1283;21996;-65
2023/03/05 08:57:42;;;;;;;6.90;3.90;;;;;;;15.17;29.44;100071.79;108093;1289;21987;-65
2023/03/05 09:00:11;;;;;;;7.70;3.40;;;;;;;15.27;30.25;100073.38;108024;1289;21945;-64
2023/03/05 09:02:37;;;;;;;7.90;3.60;;;;;;;15.53;31.68;100073.28;108106;1289;22629;-63
2023/03/05 09:05:03;;;;;;;8.30;4.00;;;;;;;15.66;30.34;100073.90;108021;1289;21985;-63
2023/03/05 09:07:29;;;;;;;8.70;4.80;;;;;;;15.69;29.59;100072.17;108086;1289;21984;-64
2023/03/05 09:09:55;;;;;;;7.80;4.50;;;;;;;15.72;30.33;100070.96;108053;1289;21991;-64
2023/03/05 09:12:20;;;;;;;9.00;4.20;;;;;;;15.83;30.89;100072.19;107979;1289;22065;-63
2023/03/05 09:14:48;;;;;;;8.90;4.80;;;;;;;16.01;30.76;100074.12;108056;1289;23148;-62
2023/03/05 09:17:14;;;;;;;8.50;4.30;;;;;;;16.11;30.69;100074.29;108051;1289;21984;-64
2023/03/05 09:19:40;;;;;;;10.60;5.20;;;;;;;16.25;31.05;100066.28;107900;1289;21986;-62
2023/03/05 09:22:06;;;;;;;10.70;5.30;;;;;;;16.44;30.84;100065.50;108033;1289;21991;-64
2023/03/05 09:24:32;;;;;;;7.80;4.60;;;;;;;16.52;30.86;100060.39;108023;1289;21984;-65
2023/03/05 09:26:59;;;;;;;8.50;4.60;;;;;;;16.57;30.92;100056.11;108064;1289;22013;-62
2023/03/05 09:29:26;;;;;;;10.20;5.70;;;;;;;16.69;30.62;100052.92;108080;1289;21997;-62
2023/03/05 09:31:52;;;;;;;8.30;5.20;;;;;;;16.84;30.90;100052.83;108086;1288;21991;-63
2023/03/05 09:34:19;;;;;;;7.40;4.70;;;;;;;16.87;29.52;100055.56;108086;1289;21995;-62
2023/03/05 09:36:46;;;;;;;9.50;5.70;;;;;;;16.73;28.07;100057.92;108078;1289;21986;-62
2023/03/05 09:39:11;;;;;;;9.50;5.40;;;;;;;16.78;29.74;100052.90;108028;1289;21983;-61
2023/03/05 09:41:56;;;;;;;8.90;5.10;;;;;;;17.04;31.00;100050.77;108094;1289;21995;-63
2023/03/05 09:44:37;;;;;;;7.70;4.90;;;;;;;17.16;29.74;100044.73;108059;1289;21989;-62
2023/03/05 09:47:19;;;;;;;10.90;6.20;;;;;;;17.16;28.72;100039.42;108053;1289;21989;-62
2023/03/05 09:49:49;;;;;;;8.30;5.00;;;;;;;17.02;28.63;100038.08;108035;1289;22080;-64
2023/03/05 09:52:21;;;;;;;10.60;6.00;;;;;;;17.11;29.47;100030.95;108077;1289;21993;-64
2023/03/05 09:54:53;;;;;;;10.40;5.80;;;;;;;17.11;28.56;100027.21;108015;1289;22464;-62
2023/03/05 09:57:29;;;;;;;17.00;7.20;;;;;;;17.14;27.88;100027.09;108170;1289;22001;-62
2023/03/05 09:59:58;;;;;;;12.40;5.20;;;;;;;17.20;29.33;100024.34;108069;1289;21987;-62
2023/03/05 10:02:28;;;;;;;16.10;6.60;;;;;;;17.49;30.27;100021.40;108040;1289;21977;-62
2023/03/05 10:05:32;;;;;;;10.00;6.10;;;;;;;17.78;29.89;100016.67;108050;1288;21999;-62
2023/03/05 10:08:00;;;;;;;9.50;5.80;;;;;;;18.00;29.33;100008.73;107972;1292;22004;-63
2023/03/05 10:10:37;;;;;;;8.60;4.80;;;;;;;18.08;29.08;100003.92;107972;1291;21995;-63
2023/03/05 10:13:09;;;;;;;9.40;5.20;;;;;;;17.78;27.08;100002.13;107770;1292;22008;-63
2023/03/05 10:15:42;;;;;;;8.60;5.10;;;;;;;17.47;28.52;100000.77;107967;1285;23803;-62
2023/03/05 10:18:45;;;;;;;8.50;4.60;;;;;;;17.26;28.58;99997.30;107854;1291;21992;-62
2023/03/05 10:21:14;;;;;;;8.70;4.40;;;;;;;17.18;28.49;99986.48;107798;1292;22137;-64
2023/03/05 10:24:13;;;;;;;7.20;4.40;;;;;;;17.43;30.25;99984.82;107784;1292;21980;-64
2023/03/05 10:27:29;;;;;;;6.90;4.10;;;;;;;17.95;30.65;99976.12;107773;1291;21990;-62
2023/03/05 10:30:22;;;;;;;7.20;3.60;;;;;;;18.14;27.51;99966.52;106937;1292;1002396;-64
2023/03/05 10:32:57;;;;;;;6.80;3.40;;;;;;;18.05;26.85;99965.17;107060;1291;1002576;-62
2023/03/05 10:35:42;;;;;;;5.50;2.70;;;;;;;18.02;26.13;99964.60;107786;1292;23609;-62
2023/03/05 10:38:27;;;;;;;6.30;2.70;;;;;;;18.10;27.06;99960.13;107818;1289;24384;-61
2023/03/05 10:40:56;;;;;;;5.50;2.70;;;;;;;18.22;26.66;99953.83;108032;1289;22456;-62
2023/03/05 10:43:36;;;;;;;4.00;2.30;;;;;;;18.27;26.50;99950.05;108063;1289;22000;-64
2023/03/05 10:46:02;;;;;;;6.20;2.40;;;;;;;18.48;27.97;99948.45;108168;1289;21986;-63
2023/03/05 10:48:49;;;;;;;3.80;1.80;;;;;;;18.66;27.09;99952.13;108065;1289;21950;-65
2023/03/05 10:51:32;;;;;;;3.80;1.70;;;;;;;18.64;25.71;99947.95;108061;1289;21987;-62
2023/03/05 10:54:03;;;;;;;4.40;1.80;;;;;;;18.59;26.03;99947.87;107846;1289;22028;-64
2023/03/05 10:56:30;;;;;;;4.00;1.60;;;;;;;18.54;26.13;99947.08;108033;1289;23722;-63
2023/03/05 10:58:56;;;;;;;3.70;1.60;;;;;;;18.62;26.75;99944.00;108017;1289;21983;-62
2023/03/05 11:01:24;;;;;;;4.50;2.00;;;;;;;18.84;26.81;99940.85;107982;1289;21995;-63
2023/03/05 11:04:06;;;;;;;3.90;1.60;;;;;;;18.89;25.69;99942.57;107961;1288;21985;-62
2023/03/05 11:06:37;;;;;;;4.30;1.60;;;;;;;18.71;26.70;99936.02;107973;1287;21991;-63
2023/03/05 11:09:15;;;;;;;4.70;1.70;;;;;;;18.72;26.59;99935.29;108078;1288;21997;-64
2023/03/05 11:11:40;;;;;;;4.10;2.20;;;;;;;18.79;25.82;99934.58;108028;1288;21987;-64
2023/03/05 11:14:29;;;;;;;4.10;1.80;;;;;;;18.85;25.20;99933.35;107978;1289;21985;-63
2023/03/05 11:16:55;;;;;;;2.90;1.40;;;;;;;18.84;25.48;99932.34;108005;1289;21992;-62
2023/03/05 11:19:31;;;;;;;3.70;1.80;;;;;;;18.73;25.18;99928.13;107984;1288;22028;-62
2023/03/05 11:22:17;;;;;;;7.40;2.40;;;;;;;18.77;24.93;99921.54;108058;1289;23647;-64
2023/03/05 11:24:45;;;;;;;4.90;2.20;;;;;;;18.82;24.68;99921.94;107977;1289;22173;-63
2023/03/05 11:27:30;;;;;;;3.60;1.90;;;;;;;18.90;25.68;99912.09;107966;1289;21986;-65